sensor_id;sensor_type;location;lat;lon;timestamp;P1;durP1;ratioP1;P2;durP2;ratioP2
17955;SDS011;27666;51.498;11.966;2023-05-07T00:00:24;17.80;;;10.37;;
17955;SDS011;27666;51.498;11.966;2023-05-07T00:03:12;16.97;;;10.80;;
17955;SDS011;27666;51.498;11.966;2023-05-07T00:05:59;17.47;;;11.93;;
17955;SDS011;27666;51.498;11.966;2023-05-07T00:08:45;16.87;;;11.60;;
17955;SDS011;27666;51.498;11.966;2023-05-07T00:11:32;18.23;;;12.00;;
17955;SDS011;27666;51.498;11.966;2023-05-07T00:14:20;21.43;;;12.93;;
17955;SDS011;27666;51.498;11.966;2023-05-07T00:17:07;20.67;;;12.00;;
17955;SDS011;27666;51.498;11.966;2023-05-07T00:19:55;19.13;;;11.30;;
17955;SDS011;27666;51.498;11.966;2023-05-07T00:22:41;18.43;;;12.57;;
17955;SDS011;27666;51.498;11.966;2023-05-07T00:25:28;19.47;;;12.07;;
17955;SDS011;27666;51.498;11.966;2023-05-07T00:28:15;18.37;;;11.73;;
17955;SDS011;27666;51.498;11.966;2023-05-07T00:31:01;15.23;;;11.17;;
17955;SDS011;27666;51.498;11.966;2023-05-07T00:33:47;12.83;;;9.33;;
17955;SDS011;27666;51.498;11.966;2023-05-07T00:36:35;12.97;;;9.47;;
17955;SDS011;27666;51.498;11.966;2023-05-07T00:39:21;13.77;;;9.60;;
17955;SDS011;27666;51.498;11.966;2023-05-07T00:42:08;14.20;;;9.97;;
17955;SDS011;27666;51.498;11.966;2023-05-07T00:44:55;12.97;;;9.23;;
17955;SDS011;27666;51.498;11.966;2023-05-07T00:47:41;13.93;;;9.33;;
17955;SDS011;27666;51.498;11.966;2023-05-07T00:50:28;13.77;;;9.50;;
17955;SDS011;27666;51.498;11.966;2023-05-07T00:53:17;14.00;;;9.73;;
17955;SDS011;27666;51.498;11.966;2023-05-07T00:56:04;13.60;;;10.00;;
17955;SDS011;27666;51.498;11.966;2023-05-07T00:58:52;17.23;;;10.00;;
17955;SDS011;27666;51.498;11.966;2023-05-07T01:01:41;14.07;;;10.40;;
17955;SDS011;27666;51.498;11.966;2023-05-07T01:04:28;16.63;;;9.47;;
17955;SDS011;27666;51.498;11.966;2023-05-07T01:07:15;16.33;;;10.97;;
17955;SDS011;27666;51.498;11.966;2023-05-07T01:10:03;14.93;;;10.47;;
17955;SDS011;27666;51.498;11.966;2023-05-07T01:12:51;16.07;;;11.00;;
17955;SDS011;27666;51.498;11.966;2023-05-07T01:15:39;14.13;;;10.17;;
17955;SDS011;27666;51.498;11.966;2023-05-07T01:18:26;15.23;;;10.40;;
17955;SDS011;27666;51.498;11.966;2023-05-07T01:21:14;12.77;;;9.30;;
17955;SDS011;27666;51.498;11.966;2023-05-07T01:24:04;13.40;;;9.40;;
17955;SDS011;27666;51.498;11.966;2023-05-07T01:26:51;13.50;;;9.73;;
17955;SDS011;27666;51.498;11.966;2023-05-07T01:29:37;12.50;;;9.03;;
17955;SDS011;27666;51.498;11.966;2023-05-07T01:32:26;13.27;;;9.20;;
17955;SDS011;27666;51.498;11.966;2023-05-07T01:35:18;11.87;;;8.63;;
17955;SDS011;27666;51.498;11.966;2023-05-07T01:38:07;12.73;;;8.63;;
17955;SDS011;27666;51.498;11.966;2023-05-07T01:40:56;12.20;;;8.83;;
17955;SDS011;27666;51.498;11.966;2023-05-07T01:43:43;12.73;;;9.33;;
17955;SDS011;27666;51.498;11.966;2023-05-07T01:46:30;13.17;;;9.73;;
17955;SDS011;27666;51.498;11.966;2023-05-07T01:49:18;15.60;;;9.40;;
17955;SDS011;27666;51.498;11.966;2023-05-07T01:52:05;11.30;;;9.00;;
17955;SDS011;27666;51.498;11.966;2023-05-07T01:54:52;12.93;;;8.60;;
17955;SDS011;27666;51.498;11.966;2023-05-07T01:57:40;13.67;;;9.17;;
17955;SDS011;27666;51.498;11.966;2023-05-07T02:00:27;12.43;;;9.03;;
17955;SDS011;27666;51.498;11.966;2023-05-07T02:03:13;11.43;;;8.23;;
17955;SDS011;27666;51.498;11.966;2023-05-07T02:06:00;13.53;;;8.80;;
17955;SDS011;27666;51.498;11.966;2023-05-07T02:08:47;14.73;;;8.67;;
17955;SDS011;27666;51.498;11.966;2023-05-07T02:11:33;13.03;;;9.00;;
17955;SDS011;27666;51.498;11.966;2023-05-07T02:14:21;14.70;;;9.13;;
17955;SDS011;27666;51.498;11.966;2023-05-07T02:17:08;13.30;;;8.10;;
17955;SDS011;27666;51.498;11.966;2023-05-07T02:19:54;11.70;;;8.83;;
17955;SDS011;27666;51.498;11.966;2023-05-07T02:22:41;11.87;;;8.70;;
17955;SDS011;27666;51.498;11.966;2023-05-07T02:25:27;12.50;;;8.67;;
17955;SDS011;27666;51.498;11.966;2023-05-07T02:28:13;12.30;;;8.70;;
17955;SDS011;27666;51.498;11.966;2023-05-07T02:31:01;11.83;;;8.87;;
17955;SDS011;27666;51.498;11.966;2023-05-07T02:33:48;11.60;;;8.40;;
17955;SDS011;27666;51.498;11.966;2023-05-07T02:36:34;10.07;;;7.80;;
17955;SDS011;27666;51.498;11.966;2023-05-07T02:39:21;12.33;;;8.27;;
17955;SDS011;27666;51.498;11.966;2023-05-07T02:42:07;13.97;;;9.73;;
17955;SDS011;27666;51.498;11.966;2023-05-07T02:44:54;13.77;;;8.90;;
17955;SDS011;27666;51.498;11.966;2023-05-07T02:47:42;11.93;;;8.60;;
17955;SDS011;27666;51.498;11.966;2023-05-07T02:50:28;13.27;;;8.87;;
17955;SDS011;27666;51.498;11.966;2023-05-07T02:53:15;11.73;;;8.87;;
17955;SDS011;27666;51.498;11.966;2023-05-07T02:56:01;13.37;;;9.70;;
17955;SDS011;27666;51.498;11.966;2023-05-07T02:58:48;12.10;;;8.80;;
17955;SDS011;27666;51.498;11.966;2023-05-07T03:01:35;12.90;;;8.80;;
17955;SDS011;27666;51.498;11.966;2023-05-07T03:04:22;12.23;;;9.13;;
17955;SDS011;27666;51.498;11.966;2023-05-07T03:07:09;11.23;;;9.17;;
17955;SDS011;27666;51.498;11.966;2023-05-07T03:09:55;14.17;;;8.87;;
17955;SDS011;27666;51.498;11.966;2023-05-07T03:12:42;11.77;;;9.07;;
17955;SDS011;27666;51.498;11.966;2023-05-07T03:15:29;12.37;;;9.07;;
17955;SDS011;27666;51.498;11.966;2023-05-07T03:18:15;14.57;;;9.77;;
17955;SDS011;27666;51.498;11.966;2023-05-07T03:21:03;14.17;;;10.17;;
17955;SDS011;27666;51.498;11.966;2023-05-07T03:23:50;16.47;;;11.30;;
17955;SDS011;27666;51.498;11.966;2023-05-07T03:26:36;13.63;;;10.37;;
17955;SDS011;27666;51.498;11.966;2023-05-07T03:29:23;13.27;;;10.87;;
17955;SDS011;27666;51.498;11.966;2023-05-07T03:32:09;13.93;;;10.87;;
17955;SDS011;27666;51.498;11.966;2023-05-07T03:34:56;16.37;;;11.83;;
17955;SDS011;27666;51.498;11.966;2023-05-07T03:37:43;16.47;;;11.50;;
17955;SDS011;27666;51.498;11.966;2023-05-07T03:40:30;17.13;;;11.80;;
17955;SDS011;27666;51.498;11.966;2023-05-07T03:43:17;16.00;;;11.77;;
17955;SDS011;27666;51.498;11.966;2023-05-07T03:46:03;19.33;;;11.97;;
17955;SDS011;27666;51.498;11.966;2023-05-07T03:48:49;17.23;;;12.33;;
17955;SDS011;27666;51.498;11.966;2023-05-07T03:51:36;16.73;;;11.53;;
17955;SDS011;27666;51.498;11.966;2023-05-07T03:54:24;17.03;;;11.30;;
17955;SDS011;27666;51.498;11.966;2023-05-07T03:57:11;16.83;;;12.30;;
17955;SDS011;27666;51.498;11.966;2023-05-07T03:59:57;17.43;;;12.17;;
17955;SDS011;27666;51.498;11.966;2023-05-07T04:02:44;15.37;;;11.33;;
17955;SDS011;27666;51.498;11.966;2023-05-07T04:05:31;18.50;;;11.63;;
17955;SDS011;27666;51.498;11.966;2023-05-07T04:08:17;18.00;;;12.20;;
17955;SDS011;27666;51.498;11.966;2023-05-07T04:11:05;16.60;;;12.13;;
17955;SDS011;27666;51.498;11.966;2023-05-07T04:13:52;17.57;;;11.23;;
17955;SDS011;27666;51.498;11.966;2023-05-07T04:16:38;20.33;;;12.37;;
17955;SDS011;27666;51.498;11.966;2023-05-07T04:19:25;17.20;;;12.33;;
17955;SDS011;27666;51.498;11.966;2023-05-07T04:22:11;19.30;;;12.17;;
17955;SDS011;27666;51.498;11.966;2023-05-07T04:24:58;17.73;;;12.13;;
17955;SDS011;27666;51.498;11.966;2023-05-07T04:27:48;16.77;;;12.23;;
17955;SDS011;27666;51.498;11.966;2023-05-07T04:30:35;18.87;;;12.63;;
17955;SDS011;27666;51.498;11.966;2023-05-07T04:33:21;17.67;;;11.73;;
17955;SDS011;27666;51.498;11.966;2023-05-07T04:36:08;19.57;;;12.60;;
17955;SDS011;27666;51.498;11.966;2023-05-07T04:38:55;20.40;;;12.87;;
17955;SDS011;27666;51.498;11.966;2023-05-07T04:41:42;19.23;;;12.50;;
17955;SDS011;27666;51.498;11.966;2023-05-07T04:44:30;19.07;;;13.07;;
17955;SDS011;27666;51.498;11.966;2023-05-07T04:47:16;20.10;;;13.03;;
17955;SDS011;27666;51.498;11.966;2023-05-07T04:50:03;19.97;;;13.90;;
17955;SDS011;27666;51.498;11.966;2023-05-07T04:52:50;23.47;;;14.23;;
17955;SDS011;27666;51.498;11.966;2023-05-07T04:55:37;22.00;;;14.43;;
17955;SDS011;27666;51.498;11.966;2023-05-07T04:58:23;21.93;;;13.60;;
17955;SDS011;27666;51.498;11.966;2023-05-07T05:01:11;20.40;;;13.67;;
17955;SDS011;27666;51.498;11.966;2023-05-07T05:03:58;26.17;;;14.73;;
17955;SDS011;27666;51.498;11.966;2023-05-07T05:06:46;23.03;;;14.40;;
17955;SDS011;27666;51.498;11.966;2023-05-07T05:09:32;20.53;;;13.27;;
17955;SDS011;27666;51.498;11.966;2023-05-07T05:12:19;19.43;;;13.17;;
17955;SDS011;27666;51.498;11.966;2023-05-07T05:15:06;19.73;;;13.27;;
17955;SDS011;27666;51.498;11.966;2023-05-07T05:17:55;20.10;;;14.10;;
17955;SDS011;27666;51.498;11.966;2023-05-07T05:20:42;22.20;;;14.33;;
17955;SDS011;27666;51.498;11.966;2023-05-07T05:23:29;18.73;;;12.93;;
17955;SDS011;27666;51.498;11.966;2023-05-07T05:26:15;20.33;;;12.77;;
17955;SDS011;27666;51.498;11.966;2023-05-07T05:29:02;23.60;;;13.20;;
17955;SDS011;27666;51.498;11.966;2023-05-07T05:31:48;21.90;;;13.70;;
17955;SDS011;27666;51.498;11.966;2023-05-07T05:34:36;17.77;;;12.90;;
17955;SDS011;27666;51.498;11.966;2023-05-07T05:37:23;21.17;;;12.93;;
17955;SDS011;27666;51.498;11.966;2023-05-07T05:40:10;18.67;;;12.47;;
17955;SDS011;27666;51.498;11.966;2023-05-07T05:42:57;17.70;;;12.70;;
17955;SDS011;27666;51.498;11.966;2023-05-07T05:45:43;20.10;;;13.70;;
17955;SDS011;27666;51.498;11.966;2023-05-07T05:48:30;19.13;;;11.80;;
17955;SDS011;27666;51.498;11.966;2023-05-07T05:51:17;17.00;;;11.83;;
17955;SDS011;27666;51.498;11.966;2023-05-07T05:54:04;17.30;;;12.33;;
17955;SDS011;27666;51.498;11.966;2023-05-07T05:56:51;15.83;;;12.10;;
17955;SDS011;27666;51.498;11.966;2023-05-07T05:59:37;14.97;;;11.30;;
17955;SDS011;27666;51.498;11.966;2023-05-07T06:02:24;21.17;;;11.73;;
17955;SDS011;27666;51.498;11.966;2023-05-07T06:05:10;16.10;;;11.67;;
17955;SDS011;27666;51.498;11.966;2023-05-07T06:07:58;16.40;;;11.57;;
17955;SDS011;27666;51.498;11.966;2023-05-07T06:10:45;15.37;;;11.17;;
17955;SDS011;27666;51.498;11.966;2023-05-07T06:13:32;14.00;;;10.40;;
17955;SDS011;27666;51.498;11.966;2023-05-07T06:16:19;14.60;;;11.27;;
17955;SDS011;27666;51.498;11.966;2023-05-07T06:19:06;15.27;;;10.70;;
17955;SDS011;27666;51.498;11.966;2023-05-07T06:21:52;16.37;;;10.67;;
17955;SDS011;27666;51.498;11.966;2023-05-07T06:24:40;14.80;;;11.17;;
17955;SDS011;27666;51.498;11.966;2023-05-07T06:27:26;12.27;;;9.90;;
17955;SDS011;27666;51.498;11.966;2023-05-07T06:30:13;13.03;;;10.30;;
17955;SDS011;27666;51.498;11.966;2023-05-07T06:33:00;13.40;;;9.90;;
17955;SDS011;27666;51.498;11.966;2023-05-07T06:35:46;12.50;;;9.70;;
17955;SDS011;27666;51.498;11.966;2023-05-07T06:38:33;13.47;;;9.17;;
17955;SDS011;27666;51.498;11.966;2023-05-07T06:41:22;11.10;;;8.70;;
17955;SDS011;27666;51.498;11.966;2023-05-07T06:44:09;10.50;;;8.47;;
17955;SDS011;27666;51.498;11.966;2023-05-07T06:46:56;12.27;;;8.93;;
17955;SDS011;27666;51.498;11.966;2023-05-07T06:49:43;11.40;;;8.80;;
17955;SDS011;27666;51.498;11.966;2023-05-07T06:52:29;10.53;;;8.83;;
17955;SDS011;27666;51.498;11.966;2023-05-07T06:55:16;12.20;;;8.30;;
17955;SDS011;27666;51.498;11.966;2023-05-07T06:58:05;9.57;;;8.30;;
17955;SDS011;27666;51.498;11.966;2023-05-07T07:00:58;10.57;;;8.07;;
17955;SDS011;27666;51.498;11.966;2023-05-07T07:03:45;11.67;;;8.73;;
17955;SDS011;27666;51.498;11.966;2023-05-07T07:06:32;12.07;;;8.27;;
17955;SDS011;27666;51.498;11.966;2023-05-07T07:09:18;10.03;;;7.90;;
17955;SDS011;27666;51.498;11.966;2023-05-07T07:12:07;10.00;;;7.47;;
17955;SDS011;27666;51.498;11.966;2023-05-07T07:14:55;10.60;;;8.07;;
17955;SDS011;27666;51.498;11.966;2023-05-07T07:17:42;11.60;;;7.53;;
17955;SDS011;27666;51.498;11.966;2023-05-07T07:20:29;12.40;;;8.30;;
17955;SDS011;27666;51.498;11.966;2023-05-07T07:23:16;12.67;;;9.17;;
17955;SDS011;27666;51.498;11.966;2023-05-07T07:26:03;9.77;;;8.00;;
17955;SDS011;27666;51.498;11.966;2023-05-07T07:28:50;11.73;;;8.63;;
17955;SDS011;27666;51.498;11.966;2023-05-07T07:31:38;12.33;;;9.33;;
17955;SDS011;27666;51.498;11.966;2023-05-07T07:34:25;12.83;;;8.87;;
17955;SDS011;27666;51.498;11.966;2023-05-07T07:37:12;12.07;;;8.97;;
17955;SDS011;27666;51.498;11.966;2023-05-07T07:40:01;14.17;;;10.40;;
17955;SDS011;27666;51.498;11.966;2023-05-07T07:42:48;17.90;;;10.10;;
17955;SDS011;27666;51.498;11.966;2023-05-07T07:45:35;13.37;;;10.87;;
17955;SDS011;27666;51.498;11.966;2023-05-07T07:48:23;16.90;;;10.10;;
17955;SDS011;27666;51.498;11.966;2023-05-07T07:51:10;16.33;;;10.87;;
17955;SDS011;27666;51.498;11.966;2023-05-07T07:53:56;13.90;;;10.53;;
17955;SDS011;27666;51.498;11.966;2023-05-07T07:56:43;13.83;;;11.00;;
17955;SDS011;27666;51.498;11.966;2023-05-07T07:59:29;14.13;;;9.73;;
17955;SDS011;27666;51.498;11.966;2023-05-07T08:02:16;12.60;;;10.00;;
17955;SDS011;27666;51.498;11.966;2023-05-07T08:05:05;12.20;;;9.03;;
17955;SDS011;27666;51.498;11.966;2023-05-07T08:07:52;11.43;;;8.93;;
17955;SDS011;27666;51.498;11.966;2023-05-07T08:10:38;13.53;;;9.50;;
17955;SDS011;27666;51.498;11.966;2023-05-07T08:13:25;13.33;;;9.33;;
17955;SDS011;27666;51.498;11.966;2023-05-07T08:16:12;9.77;;;8.10;;
17955;SDS011;27666;51.498;11.966;2023-05-07T08:18:58;10.07;;;8.10;;
17955;SDS011;27666;51.498;11.966;2023-05-07T08:21:47;10.50;;;7.63;;
17955;SDS011;27666;51.498;11.966;2023-05-07T08:24:34;9.07;;;7.50;;
17955;SDS011;27666;51.498;11.966;2023-05-07T08:27:20;10.20;;;7.93;;
17955;SDS011;27666;51.498;11.966;2023-05-07T08:30:07;8.53;;;7.40;;
17955;SDS011;27666;51.498;11.966;2023-05-07T08:32:55;9.13;;;8.13;;
17955;SDS011;27666;51.498;11.966;2023-05-07T08:35:41;11.23;;;8.00;;
17955;SDS011;27666;51.498;11.966;2023-05-07T08:38:29;9.10;;;8.00;;
17955;SDS011;27666;51.498;11.966;2023-05-07T08:41:15;9.60;;;8.03;;
17955;SDS011;27666;51.498;11.966;2023-05-07T08:44:02;9.37;;;7.57;;
17955;SDS011;27666;51.498;11.966;2023-05-07T08:46:53;9.87;;;7.90;;
17955;SDS011;27666;51.498;11.966;2023-05-07T08:49:41;7.73;;;6.93;;
17955;SDS011;27666;51.498;11.966;2023-05-07T08:52:28;8.50;;;7.13;;
17955;SDS011;27666;51.498;11.966;2023-05-07T08:55:16;6.93;;;6.20;;
17955;SDS011;27666;51.498;11.966;2023-05-07T08:58:03;7.10;;;6.40;;
17955;SDS011;27666;51.498;11.966;2023-05-07T09:00:50;8.23;;;6.17;;
17955;SDS011;27666;51.498;11.966;2023-05-07T09:03:38;6.47;;;5.70;;
17955;SDS011;27666;51.498;11.966;2023-05-07T09:06:25;7.40;;;6.43;;
17955;SDS011;27666;51.498;11.966;2023-05-07T09:09:13;7.60;;;6.30;;
17955;SDS011;27666;51.498;11.966;2023-05-07T09:12:04;7.70;;;6.63;;
17955;SDS011;27666;51.498;11.966;2023-05-07T09:14:50;9.80;;;7.87;;
17955;SDS011;27666;51.498;11.966;2023-05-07T09:17:37;8.93;;;6.93;;
17955;SDS011;27666;51.498;11.966;2023-05-07T09:20:23;9.47;;;7.27;;
17955;SDS011;27666;51.498;11.966;2023-05-07T09:23:10;9.10;;;7.40;;
17955;SDS011;27666;51.498;11.966;2023-05-07T09:25:59;8.90;;;7.27;;
17955;SDS011;27666;51.498;11.966;2023-05-07T09:28:48;11.87;;;7.47;;
17955;SDS011;27666;51.498;11.966;2023-05-07T09:31:36;7.83;;;6.80;;
17955;SDS011;27666;51.498;11.966;2023-05-07T09:34:23;10.83;;;8.30;;
17955;SDS011;27666;51.498;11.966;2023-05-07T09:37:10;8.70;;;7.37;;
17955;SDS011;27666;51.498;11.966;2023-05-07T09:39:59;13.53;;;7.73;;
17955;SDS011;27666;51.498;11.966;2023-05-07T09:42:45;8.33;;;6.57;;
17955;SDS011;27666;51.498;11.966;2023-05-07T09:45:34;8.53;;;7.40;;
17955;SDS011;27666;51.498;11.966;2023-05-07T09:48:22;12.03;;;9.37;;
17955;SDS011;27666;51.498;11.966;2023-05-07T09:51:11;13.03;;;10.27;;
17955;SDS011;27666;51.498;11.966;2023-05-07T09:54:16;12.87;;;10.17;;
17955;SDS011;27666;51.498;11.966;2023-05-07T09:57:05;12.53;;;9.80;;
17955;SDS011;27666;51.498;11.966;2023-05-07T09:59:52;12.70;;;9.80;;
17955;SDS011;27666;51.498;11.966;2023-05-07T10:02:42;12.97;;;10.10;;
17955;SDS011;27666;51.498;11.966;2023-05-07T10:05:33;14.70;;;11.37;;
17955;SDS011;27666;51.498;11.966;2023-05-07T10:08:20;13.10;;;9.77;;
17955;SDS011;27666;51.498;11.966;2023-05-07T10:11:07;14.73;;;10.37;;
17955;SDS011;27666;51.498;11.966;2023-05-07T10:13:55;12.10;;;9.83;;
17955;SDS011;27666;51.498;11.966;2023-05-07T10:16:42;12.03;;;9.27;;
17955;SDS011;27666;51.498;11.966;2023-05-07T10:19:30;11.33;;;8.93;;
17955;SDS011;27666;51.498;11.966;2023-05-07T10:22:18;11.30;;;9.00;;
17955;SDS011;27666;51.498;11.966;2023-05-07T10:25:06;10.80;;;9.43;;
17955;SDS011;27666;51.498;11.966;2023-05-07T10:28:00;14.30;;;9.60;;
17955;SDS011;27666;51.498;11.966;2023-05-07T10:30:55;12.13;;;9.83;;
17955;SDS011;27666;51.498;11.966;2023-05-07T10:33:53;13.30;;;10.17;;
17955;SDS011;27666;51.498;11.966;2023-05-07T10:36:44;15.27;;;10.50;;
17955;SDS011;27666;51.498;11.966;2023-05-07T10:39:32;13.70;;;9.60;;
17955;SDS011;27666;51.498;11.966;2023-05-07T10:42:18;11.67;;;9.83;;
17955;SDS011;27666;51.498;11.966;2023-05-07T10:45:12;12.87;;;10.10;;
17955;SDS011;27666;51.498;11.966;2023-05-07T10:48:05;15.03;;;10.47;;
17955;SDS011;27666;51.498;11.966;2023-05-07T10:51:18;13.97;;;10.60;;
17955;SDS011;27666;51.498;11.966;2023-05-07T10:54:20;14.50;;;10.27;;
17955;SDS011;27666;51.498;11.966;2023-05-07T11:03:29;14.20;;;10.17;;
17955;SDS011;27666;51.498;11.966;2023-05-07T11:06:16;15.27;;;11.77;;
17955;SDS011;27666;51.498;11.966;2023-05-07T11:09:02;17.63;;;11.03;;
17955;SDS011;27666;51.498;11.966;2023-05-07T11:11:50;13.93;;;11.20;;
17955;SDS011;27666;51.498;11.966;2023-05-07T11:14:43;13.53;;;10.07;;
17955;SDS011;27666;51.498;11.966;2023-05-07T11:17:30;10.03;;;8.57;;
17955;SDS011;27666;51.498;11.966;2023-05-07T11:20:22;12.00;;;8.93;;
17955;SDS011;27666;51.498;11.966;2023-05-07T11:23:57;12.83;;;8.50;;
17955;SDS011;27666;51.498;11.966;2023-05-07T11:26:45;9.07;;;8.17;;
17955;SDS011;27666;51.498;11.966;2023-05-07T11:29:34;11.63;;;8.93;;
17955;SDS011;27666;51.498;11.966;2023-05-07T11:32:22;11.97;;;9.37;;
17955;SDS011;27666;51.498;11.966;2023-05-07T11:35:09;10.30;;;8.90;;
17955;SDS011;27666;51.498;11.966;2023-05-07T11:37:57;11.57;;;9.43;;
17955;SDS011;27666;51.498;11.966;2023-05-07T11:40:49;10.17;;;9.07;;
17955;SDS011;27666;51.498;11.966;2023-05-07T11:43:36;10.50;;;8.73;;
17955;SDS011;27666;51.498;11.966;2023-05-07T11:46:26;10.47;;;8.80;;
17955;SDS011;27666;51.498;11.966;2023-05-07T11:49:13;11.57;;;9.43;;
17955;SDS011;27666;51.498;11.966;2023-05-07T11:52:00;12.10;;;8.50;;
17955;SDS011;27666;51.498;11.966;2023-05-07T11:54:49;9.63;;;8.60;;
17955;SDS011;27666;51.498;11.966;2023-05-07T11:57:36;11.67;;;10.10;;
17955;SDS011;27666;51.498;11.966;2023-05-07T12:00:23;14.60;;;10.30;;
17955;SDS011;27666;51.498;11.966;2023-05-07T12:03:10;12.40;;;10.20;;
17955;SDS011;27666;51.498;11.966;2023-05-07T12:05:57;10.23;;;8.57;;
17955;SDS011;27666;51.498;11.966;2023-05-07T12:08:46;10.60;;;9.30;;
17955;SDS011;27666;51.498;11.966;2023-05-07T12:11:32;10.10;;;7.97;;
17955;SDS011;27666;51.498;11.966;2023-05-07T12:14:20;10.57;;;8.33;;
17955;SDS011;27666;51.498;11.966;2023-05-07T12:17:06;7.93;;;6.73;;
17955;SDS011;27666;51.498;11.966;2023-05-07T12:19:55;8.67;;;7.77;;
17955;SDS011;27666;51.498;11.966;2023-05-07T12:22:42;7.90;;;6.57;;
17955;SDS011;27666;51.498;11.966;2023-05-07T12:25:29;8.05;;;6.80;;
17955;SDS011;27666;51.498;11.966;2023-05-07T12:28:17;7.03;;;6.10;;
17955;SDS011;27666;51.498;11.966;2023-05-07T12:31:05;7.63;;;6.47;;
17955;SDS011;27666;51.498;11.966;2023-05-07T12:33:52;7.68;;;6.57;;
17955;SDS011;27666;51.498;11.966;2023-05-07T12:36:40;7.35;;;6.57;;
17955;SDS011;27666;51.498;11.966;2023-05-07T12:39:27;7.78;;;6.80;;
17955;SDS011;27666;51.498;11.966;2023-05-07T12:42:14;8.98;;;7.80;;
17955;SDS011;27666;51.498;11.966;2023-05-07T12:45:07;11.43;;;8.40;;
17955;SDS011;27666;51.498;11.966;2023-05-07T12:47:55;10.03;;;8.70;;
17955;SDS011;27666;51.498;11.966;2023-05-07T12:50:48;9.40;;;8.27;;
17955;SDS011;27666;51.498;11.966;2023-05-07T12:53:39;11.35;;;8.60;;
17955;SDS011;27666;51.498;11.966;2023-05-07T12:56:27;11.67;;;8.80;;
17955;SDS011;27666;51.498;11.966;2023-05-07T12:59:16;10.50;;;8.37;;
17955;SDS011;27666;51.498;11.966;2023-05-07T13:02:03;13.03;;;8.57;;
17955;SDS011;27666;51.498;11.966;2023-05-07T13:04:50;11.93;;;9.00;;
17955;SDS011;27666;51.498;11.966;2023-05-07T13:07:38;10.93;;;9.27;;
17955;SDS011;27666;51.498;11.966;2023-05-07T13:10:27;14.60;;;9.33;;
17955;SDS011;27666;51.498;11.966;2023-05-07T13:13:13;10.47;;;8.80;;
17955;SDS011;27666;51.498;11.966;2023-05-07T13:16:00;11.97;;;8.60;;
17955;SDS011;27666;51.498;11.966;2023-05-07T13:18:47;10.82;;;7.85;;
17955;SDS011;27666;51.498;11.966;2023-05-07T13:21:33;8.70;;;6.85;;
17955;SDS011;27666;51.498;11.966;2023-05-07T13:24:20;7.70;;;6.43;;
17955;SDS011;27666;51.498;11.966;2023-05-07T13:27:08;10.65;;;7.60;;
17955;SDS011;27666;51.498;11.966;2023-05-07T13:29:54;12.80;;;7.90;;
17955;SDS011;27666;51.498;11.966;2023-05-07T13:32:41;9.43;;;7.78;;
17955;SDS011;27666;51.498;11.966;2023-05-07T13:35:28;7.33;;;6.33;;
17955;SDS011;27666;51.498;11.966;2023-05-07T13:38:15;8.57;;;6.70;;
17955;SDS011;27666;51.498;11.966;2023-05-07T13:41:02;7.63;;;6.00;;
17955;SDS011;27666;51.498;11.966;2023-05-07T13:43:50;6.65;;;5.63;;
17955;SDS011;27666;51.498;11.966;2023-05-07T13:46:37;6.55;;;5.57;;
17955;SDS011;27666;51.498;11.966;2023-05-07T13:49:23;8.20;;;5.15;;
17955;SDS011;27666;51.498;11.966;2023-05-07T13:52:10;6.17;;;5.43;;
17955;SDS011;27666;51.498;11.966;2023-05-07T13:54:57;9.30;;;5.50;;
17955;SDS011;27666;51.498;11.966;2023-05-07T13:57:43;6.25;;;5.45;;
17955;SDS011;27666;51.498;11.966;2023-05-07T14:00:31;6.10;;;5.28;;
17955;SDS011;27666;51.498;11.966;2023-05-07T14:03:18;6.38;;;5.22;;
17955;SDS011;27666;51.498;11.966;2023-05-07T14:06:04;6.55;;;5.00;;
17955;SDS011;27666;51.498;11.966;2023-05-07T14:08:51;5.90;;;4.80;;
17955;SDS011;27666;51.498;11.966;2023-05-07T14:11:37;5.33;;;4.70;;
17955;SDS011;27666;51.498;11.966;2023-05-07T14:14:24;5.78;;;5.03;;
17955;SDS011;27666;51.498;11.966;2023-05-07T14:17:12;5.60;;;4.72;;
17955;SDS011;27666;51.498;11.966;2023-05-07T14:20:00;6.57;;;5.05;;
17955;SDS011;27666;51.498;11.966;2023-05-07T14:22:47;6.25;;;5.22;;
17955;SDS011;27666;51.498;11.966;2023-05-07T14:25:33;10.55;;;6.00;;
17955;SDS011;27666;51.498;11.966;2023-05-07T14:28:20;6.82;;;5.45;;
17955;SDS011;27666;51.498;11.966;2023-05-07T14:31:07;9.47;;;6.03;;
17955;SDS011;27666;51.498;11.966;2023-05-07T14:33:56;6.67;;;5.40;;
17955;SDS011;27666;51.498;11.966;2023-05-07T14:36:44;7.22;;;5.50;;
17955;SDS011;27666;51.498;11.966;2023-05-07T14:39:32;6.90;;;5.33;;
17955;SDS011;27666;51.498;11.966;2023-05-07T14:42:18;5.22;;;4.72;;
17955;SDS011;27666;51.498;11.966;2023-05-07T14:45:05;7.07;;;4.90;;
17955;SDS011;27666;51.498;11.966;2023-05-07T14:47:53;5.57;;;4.95;;
17955;SDS011;27666;51.498;11.966;2023-05-07T14:50:41;5.97;;;4.55;;
17955;SDS011;27666;51.498;11.966;2023-05-07T14:53:28;6.88;;;4.88;;
17955;SDS011;27666;51.498;11.966;2023-05-07T14:56:14;6.03;;;4.15;;
17955;SDS011;27666;51.498;11.966;2023-05-07T14:59:01;5.78;;;4.45;;
17955;SDS011;27666;51.498;11.966;2023-05-07T15:01:48;4.78;;;4.15;;
17955;SDS011;27666;51.498;11.966;2023-05-07T15:04:35;4.25;;;3.85;;
17955;SDS011;27666;51.498;11.966;2023-05-07T15:07:24;4.78;;;3.95;;
17955;SDS011;27666;51.498;11.966;2023-05-07T15:10:11;4.45;;;4.03;;
17955;SDS011;27666;51.498;11.966;2023-05-07T15:12:57;7.60;;;4.43;;
17955;SDS011;27666;51.498;11.966;2023-05-07T15:15:44;4.33;;;3.87;;
17955;SDS011;27666;51.498;11.966;2023-05-07T15:18:30;4.43;;;4.03;;
17955;SDS011;27666;51.498;11.966;2023-05-07T15:21:17;5.20;;;4.00;;
17955;SDS011;27666;51.498;11.966;2023-05-07T15:24:05;5.00;;;4.03;;
17955;SDS011;27666;51.498;11.966;2023-05-07T15:26:54;4.65;;;4.20;;
17955;SDS011;27666;51.498;11.966;2023-05-07T15:29:41;5.45;;;4.00;;
17955;SDS011;27666;51.498;11.966;2023-05-07T15:32:27;4.80;;;3.88;;
17955;SDS011;27666;51.498;11.966;2023-05-07T15:35:14;4.18;;;3.72;;
17955;SDS011;27666;51.498;11.966;2023-05-07T15:38:02;4.20;;;3.80;;
17955;SDS011;27666;51.498;11.966;2023-05-07T15:40:50;4.03;;;3.63;;
17955;SDS011;27666;51.498;11.966;2023-05-07T15:43:38;4.00;;;3.60;;
17955;SDS011;27666;51.498;11.966;2023-05-07T15:46:30;4.10;;;3.67;;
17955;SDS011;27666;51.498;11.966;2023-05-07T15:49:17;4.28;;;3.60;;
17955;SDS011;27666;51.498;11.966;2023-05-07T15:52:03;4.27;;;3.73;;
17955;SDS011;27666;51.498;11.966;2023-05-07T15:54:54;5.07;;;4.43;;
17955;SDS011;27666;51.498;11.966;2023-05-07T15:57:43;5.20;;;3.80;;
17955;SDS011;27666;51.498;11.966;2023-05-07T16:00:29;5.00;;;4.18;;
17955;SDS011;27666;51.498;11.966;2023-05-07T16:03:16;5.30;;;4.07;;
17955;SDS011;27666;51.498;11.966;2023-05-07T16:06:03;4.85;;;4.32;;
17955;SDS011;27666;51.498;11.966;2023-05-07T16:08:50;4.57;;;4.18;;
17955;SDS011;27666;51.498;11.966;2023-05-07T16:11:36;8.70;;;4.43;;
17955;SDS011;27666;51.498;11.966;2023-05-07T16:14:24;5.18;;;4.68;;
17955;SDS011;27666;51.498;11.966;2023-05-07T16:17:11;4.97;;;4.47;;
17955;SDS011;27666;51.498;11.966;2023-05-07T16:19:57;8.13;;;4.78;;
17955;SDS011;27666;51.498;11.966;2023-05-07T16:22:47;9.03;;;4.77;;
17955;SDS011;27666;51.498;11.966;2023-05-07T16:25:34;5.03;;;4.53;;